Terminal Aerodrome Forecast
Issued by NWS

Current Version | Previous Version | Text Only | Print | Product List | Glossary On
Versions: 1 2 3 4 5 6 7 8 9 10 11 12 13 14 15
000
FTUS46 KPDT 201331 AAA
TAFPSC
TAF AMD
KPSC 201331Z 2014/2112 16007KT P6SM -RA OVC060
     FM201900 24014G22KT P6SM SCT070 BKN120
     FM210100 23009KT P6SM SCT100 BKN200
     FM210800 VRB04KT P6SM BKN100=

USA.gov is the U.S. government's official web portal to all federal, state and local government web resources and services.